sensor_id;sensor_type;location;lat;lon;timestamp;P1;durP1;ratioP1;P2;durP2;ratioP2
64653;SDS011;51065;48.884;12.598;2022-10-16T00:00:37;6.55;;;3.50;;
64653;SDS011;51065;48.884;12.598;2022-10-16T00:03:04;8.68;;;3.58;;
64653;SDS011;51065;48.884;12.598;2022-10-16T00:05:30;5.43;;;3.08;;
64653;SDS011;51065;48.884;12.598;2022-10-16T00:07:56;6.57;;;2.90;;
64653;SDS011;51065;48.884;12.598;2022-10-16T00:10:21;7.13;;;3.20;;
64653;SDS011;51065;48.884;12.598;2022-10-16T00:12:47;8.82;;;3.58;;
64653;SDS011;51065;48.884;12.598;2022-10-16T00:15:13;8.30;;;3.30;;
64653;SDS011;51065;48.884;12.598;2022-10-16T00:17:39;7.90;;;3.50;;
64653;SDS011;51065;48.884;12.598;2022-10-16T00:20:04;6.07;;;3.25;;
64653;SDS011;51065;48.884;12.598;2022-10-16T00:22:30;7.10;;;3.22;;
64653;SDS011;51065;48.884;12.598;2022-10-16T00:24:56;9.18;;;3.30;;
64653;SDS011;51065;48.884;12.598;2022-10-16T00:27:22;7.80;;;3.25;;
64653;SDS011;51065;48.884;12.598;2022-10-16T00:29:50;6.32;;;3.10;;
64653;SDS011;51065;48.884;12.598;2022-10-16T00:32:17;6.60;;;3.30;;
64653;SDS011;51065;48.884;12.598;2022-10-16T00:34:44;6.07;;;3.28;;
64653;SDS011;51065;48.884;12.598;2022-10-16T00:37:10;6.57;;;2.90;;
64653;SDS011;51065;48.884;12.598;2022-10-16T00:39:36;6.15;;;3.00;;
64653;SDS011;51065;48.884;12.598;2022-10-16T00:42:02;12.27;;;3.33;;
64653;SDS011;51065;48.884;12.598;2022-10-16T00:44:44;5.55;;;3.60;;
64653;SDS011;51065;48.884;12.598;2022-10-16T00:47:22;5.43;;;2.63;;
64653;SDS011;51065;48.884;12.598;2022-10-16T00:49:53;6.25;;;2.95;;
64653;SDS011;51065;48.884;12.598;2022-10-16T00:52:44;5.10;;;2.83;;
64653;SDS011;51065;48.884;12.598;2022-10-16T00:55:13;6.50;;;2.97;;
64653;SDS011;51065;48.884;12.598;2022-10-16T00:57:39;5.93;;;3.40;;
64653;SDS011;51065;48.884;12.598;2022-10-16T01:00:07;8.82;;;3.28;;
64653;SDS011;51065;48.884;12.598;2022-10-16T01:02:34;6.32;;;3.17;;
64653;SDS011;51065;48.884;12.598;2022-10-16T01:05:00;6.20;;;3.13;;
64653;SDS011;51065;48.884;12.598;2022-10-16T01:15:41;6.32;;;3.22;;
64653;SDS011;51065;48.884;12.598;2022-10-16T01:18:29;6.07;;;3.58;;
64653;SDS011;51065;48.884;12.598;2022-10-16T01:21:03;11.13;;;4.03;;
64653;SDS011;51065;48.884;12.598;2022-10-16T01:24:33;7.63;;;3.50;;
64653;SDS011;51065;48.884;12.598;2022-10-16T01:29:59;7.90;;;3.90;;
64653;SDS011;51065;48.884;12.598;2022-10-16T01:32:50;6.90;;;3.15;;
64653;SDS011;51065;48.884;12.598;2022-10-16T01:34:51;8.00;;;3.10;;
64653;SDS011;51065;48.884;12.598;2022-10-16T01:37:48;7.32;;;3.33;;
64653;SDS011;51065;48.884;12.598;2022-10-16T01:40:19;7.55;;;3.40;;
64653;SDS011;51065;48.884;12.598;2022-10-16T01:42:50;7.25;;;3.42;;
64653;SDS011;51065;48.884;12.598;2022-10-16T01:45:40;9.95;;;3.60;;
64653;SDS011;51065;48.884;12.598;2022-10-16T01:48:06;14.35;;;4.32;;
64653;SDS011;51065;48.884;12.598;2022-10-16T01:50:35;8.05;;;3.42;;
64653;SDS011;51065;48.884;12.598;2022-10-16T01:53:05;6.40;;;3.55;;
64653;SDS011;51065;48.884;12.598;2022-10-16T01:55:36;8.50;;;3.70;;
64653;SDS011;51065;48.884;12.598;2022-10-16T01:58:08;9.13;;;3.70;;
64653;SDS011;51065;48.884;12.598;2022-10-16T02:00:36;7.40;;;3.20;;
64653;SDS011;51065;48.884;12.598;2022-10-16T02:03:04;13.30;;;3.97;;
64653;SDS011;51065;48.884;12.598;2022-10-16T02:05:34;7.50;;;3.50;;
64653;SDS011;51065;48.884;12.598;2022-10-16T02:08:29;11.15;;;3.50;;
64653;SDS011;51065;48.884;12.598;2022-10-16T02:10:57;9.40;;;4.03;;
64653;SDS011;51065;48.884;12.598;2022-10-16T02:13:29;8.45;;;4.60;;
64653;SDS011;51065;48.884;12.598;2022-10-16T02:16:00;9.73;;;3.88;;
64653;SDS011;51065;48.884;12.598;2022-10-16T02:18:26;9.07;;;3.90;;
64653;SDS011;51065;48.884;12.598;2022-10-16T02:20:58;9.32;;;4.32;;
64653;SDS011;51065;48.884;12.598;2022-10-16T02:23:50;9.60;;;3.83;;
64653;SDS011;51065;48.884;12.598;2022-10-16T02:26:20;9.15;;;3.72;;
64653;SDS011;51065;48.884;12.598;2022-10-16T02:29:02;10.52;;;3.75;;
64653;SDS011;51065;48.884;12.598;2022-10-16T02:31:32;12.63;;;4.30;;
64653;SDS011;51065;48.884;12.598;2022-10-16T02:36:30;10.80;;;3.70;;
64653;SDS011;51065;48.884;12.598;2022-10-16T02:38:57;7.57;;;3.38;;
64653;SDS011;51065;48.884;12.598;2022-10-16T02:41:25;9.80;;;3.55;;
64653;SDS011;51065;48.884;12.598;2022-10-16T02:43:50;7.05;;;3.15;;
64653;SDS011;51065;48.884;12.598;2022-10-16T02:46:16;10.57;;;3.67;;
64653;SDS011;51065;48.884;12.598;2022-10-16T02:48:43;6.13;;;3.40;;
64653;SDS011;51065;48.884;12.598;2022-10-16T02:51:08;6.78;;;3.80;;
64653;SDS011;51065;48.884;12.598;2022-10-16T02:53:34;8.43;;;3.97;;
64653;SDS011;51065;48.884;12.598;2022-10-16T02:56:00;7.80;;;3.83;;
64653;SDS011;51065;48.884;12.598;2022-10-16T02:58:25;7.40;;;3.50;;
64653;SDS011;51065;48.884;12.598;2022-10-16T03:00:51;9.98;;;3.60;;
64653;SDS011;51065;48.884;12.598;2022-10-16T03:03:16;7.00;;;3.47;;
64653;SDS011;51065;48.884;12.598;2022-10-16T03:05:42;9.13;;;4.38;;
64653;SDS011;51065;48.884;12.598;2022-10-16T03:08:10;7.03;;;3.55;;
64653;SDS011;51065;48.884;12.598;2022-10-16T03:10:36;8.65;;;3.80;;
64653;SDS011;51065;48.884;12.598;2022-10-16T03:13:02;9.02;;;3.80;;
64653;SDS011;51065;48.884;12.598;2022-10-16T03:15:28;8.68;;;4.00;;
64653;SDS011;51065;48.884;12.598;2022-10-16T03:17:53;8.65;;;4.10;;
64653;SDS011;51065;48.884;12.598;2022-10-16T03:20:19;9.98;;;3.55;;
64653;SDS011;51065;48.884;12.598;2022-10-16T03:22:45;9.52;;;3.70;;
64653;SDS011;51065;48.884;12.598;2022-10-16T03:25:11;11.38;;;4.18;;
64653;SDS011;51065;48.884;12.598;2022-10-16T03:27:36;11.60;;;4.50;;
64653;SDS011;51065;48.884;12.598;2022-10-16T03:30:02;8.20;;;3.90;;
64653;SDS011;51065;48.884;12.598;2022-10-16T03:32:28;8.00;;;3.92;;
64653;SDS011;51065;48.884;12.598;2022-10-16T03:34:53;7.15;;;3.53;;
64653;SDS011;51065;48.884;12.598;2022-10-16T03:37:21;7.95;;;3.55;;
64653;SDS011;51065;48.884;12.598;2022-10-16T03:39:46;9.02;;;3.53;;
64653;SDS011;51065;48.884;12.598;2022-10-16T03:42:12;10.05;;;4.00;;
64653;SDS011;51065;48.884;12.598;2022-10-16T03:44:38;13.48;;;4.22;;
64653;SDS011;51065;48.884;12.598;2022-10-16T03:47:03;10.05;;;4.47;;
64653;SDS011;51065;48.884;12.598;2022-10-16T03:49:29;6.45;;;3.53;;
64653;SDS011;51065;48.884;12.598;2022-10-16T03:51:54;9.60;;;3.88;;
64653;SDS011;51065;48.884;12.598;2022-10-16T03:54:20;11.82;;;4.28;;
64653;SDS011;51065;48.884;12.598;2022-10-16T03:56:47;9.13;;;4.10;;
64653;SDS011;51065;48.884;12.598;2022-10-16T03:59:12;9.90;;;3.95;;
64653;SDS011;51065;48.884;12.598;2022-10-16T04:01:38;8.82;;;3.75;;
64653;SDS011;51065;48.884;12.598;2022-10-16T04:04:04;8.85;;;3.70;;
64653;SDS011;51065;48.884;12.598;2022-10-16T04:06:29;8.73;;;3.90;;
64653;SDS011;51065;48.884;12.598;2022-10-16T04:08:55;11.63;;;4.18;;
64653;SDS011;51065;48.884;12.598;2022-10-16T04:11:21;8.82;;;3.80;;
64653;SDS011;51065;48.884;12.598;2022-10-16T04:13:46;7.30;;;3.97;;
64653;SDS011;51065;48.884;12.598;2022-10-16T04:16:12;9.25;;;3.88;;
64653;SDS011;51065;48.884;12.598;2022-10-16T04:18:37;14.85;;;4.13;;
64653;SDS011;51065;48.884;12.598;2022-10-16T04:21:04;9.75;;;4.15;;
64653;SDS011;51065;48.884;12.598;2022-10-16T04:23:31;13.73;;;3.95;;
64653;SDS011;51065;48.884;12.598;2022-10-16T04:25:57;7.70;;;3.42;;
64653;SDS011;51065;48.884;12.598;2022-10-16T04:28:22;6.20;;;3.42;;
64653;SDS011;51065;48.884;12.598;2022-10-16T04:30:48;11.90;;;4.63;;
64653;SDS011;51065;48.884;12.598;2022-10-16T04:33:14;11.05;;;4.45;;
64653;SDS011;51065;48.884;12.598;2022-10-16T04:35:39;12.48;;;4.40;;
64653;SDS011;51065;48.884;12.598;2022-10-16T04:38:05;10.07;;;4.53;;
64653;SDS011;51065;48.884;12.598;2022-10-16T04:40:30;8.40;;;3.90;;
64653;SDS011;51065;48.884;12.598;2022-10-16T04:42:58;9.05;;;3.92;;
64653;SDS011;51065;48.884;12.598;2022-10-16T04:45:24;7.85;;;3.47;;
64653;SDS011;51065;48.884;12.598;2022-10-16T04:47:50;11.93;;;3.80;;
64653;SDS011;51065;48.884;12.598;2022-10-16T04:50:15;10.20;;;4.40;;
64653;SDS011;51065;48.884;12.598;2022-10-16T04:52:41;11.02;;;4.25;;
64653;SDS011;51065;48.884;12.598;2022-10-16T04:55:07;9.65;;;4.18;;
64653;SDS011;51065;48.884;12.598;2022-10-16T04:57:32;10.50;;;4.90;;
64653;SDS011;51065;48.884;12.598;2022-10-16T04:59:58;7.40;;;3.80;;
64653;SDS011;51065;48.884;12.598;2022-10-16T05:02:24;11.23;;;5.10;;
64653;SDS011;51065;48.884;12.598;2022-10-16T05:04:50;11.85;;;4.78;;
64653;SDS011;51065;48.884;12.598;2022-10-16T05:07:16;12.45;;;4.32;;
64653;SDS011;51065;48.884;12.598;2022-10-16T05:09:41;8.98;;;4.20;;
64653;SDS011;51065;48.884;12.598;2022-10-16T05:12:07;10.50;;;4.40;;
64653;SDS011;51065;48.884;12.598;2022-10-16T05:14:32;10.13;;;4.40;;
64653;SDS011;51065;48.884;12.598;2022-10-16T05:16:59;9.25;;;4.25;;
64653;SDS011;51065;48.884;12.598;2022-10-16T05:19:25;8.55;;;4.50;;
64653;SDS011;51065;48.884;12.598;2022-10-16T05:21:51;7.57;;;4.18;;
64653;SDS011;51065;48.884;12.598;2022-10-16T05:24:16;12.00;;;4.53;;
64653;SDS011;51065;48.884;12.598;2022-10-16T05:26:42;8.18;;;3.70;;
64653;SDS011;51065;48.884;12.598;2022-10-16T05:29:08;7.45;;;3.92;;
64653;SDS011;51065;48.884;12.598;2022-10-16T05:31:34;10.30;;;4.38;;
64653;SDS011;51065;48.884;12.598;2022-10-16T05:34:00;11.77;;;4.50;;
64653;SDS011;51065;48.884;12.598;2022-10-16T05:36:25;9.15;;;4.00;;
64653;SDS011;51065;48.884;12.598;2022-10-16T05:38:51;13.18;;;4.47;;
64653;SDS011;51065;48.884;12.598;2022-10-16T05:41:17;8.25;;;4.18;;
64653;SDS011;51065;48.884;12.598;2022-10-16T05:43:49;10.88;;;4.65;;
64653;SDS011;51065;48.884;12.598;2022-10-16T05:46:15;8.93;;;4.43;;
64653;SDS011;51065;48.884;12.598;2022-10-16T05:48:41;14.50;;;4.60;;
64653;SDS011;51065;48.884;12.598;2022-10-16T05:51:09;11.10;;;4.57;;
64653;SDS011;51065;48.884;12.598;2022-10-16T05:53:37;8.43;;;3.90;;
64653;SDS011;51065;48.884;12.598;2022-10-16T05:56:04;8.68;;;3.90;;
64653;SDS011;51065;48.884;12.598;2022-10-16T05:58:31;10.02;;;4.10;;
64653;SDS011;51065;48.884;12.598;2022-10-16T06:01:04;8.85;;;3.90;;
64653;SDS011;51065;48.884;12.598;2022-10-16T06:03:37;7.68;;;4.00;;
64653;SDS011;51065;48.884;12.598;2022-10-16T06:06:17;8.65;;;4.38;;
64653;SDS011;51065;48.884;12.598;2022-10-16T06:08:45;10.68;;;4.65;;
64653;SDS011;51065;48.884;12.598;2022-10-16T06:11:12;12.13;;;5.10;;
64653;SDS011;51065;48.884;12.598;2022-10-16T06:13:42;14.02;;;5.43;;
64653;SDS011;51065;48.884;12.598;2022-10-16T06:16:08;14.73;;;5.45;;
64653;SDS011;51065;48.884;12.598;2022-10-16T06:18:35;13.05;;;5.05;;
64653;SDS011;51065;48.884;12.598;2022-10-16T06:21:06;17.80;;;7.35;;
64653;SDS011;51065;48.884;12.598;2022-10-16T06:23:33;11.90;;;5.18;;
64653;SDS011;51065;48.884;12.598;2022-10-16T06:26:06;14.10;;;5.25;;
64653;SDS011;51065;48.884;12.598;2022-10-16T06:28:39;6.40;;;3.22;;
64653;SDS011;51065;48.884;12.598;2022-10-16T06:31:06;8.50;;;3.60;;
64653;SDS011;51065;48.884;12.598;2022-10-16T06:33:32;9.25;;;3.78;;
64653;SDS011;51065;48.884;12.598;2022-10-16T06:36:05;6.07;;;3.20;;
64653;SDS011;51065;48.884;12.598;2022-10-16T06:38:38;6.47;;;3.50;;
64653;SDS011;51065;48.884;12.598;2022-10-16T06:41:04;8.70;;;3.05;;
64653;SDS011;51065;48.884;12.598;2022-10-16T06:43:31;7.78;;;3.53;;
64653;SDS011;51065;48.884;12.598;2022-10-16T06:45:57;13.40;;;3.60;;
64653;SDS011;51065;48.884;12.598;2022-10-16T06:48:25;7.18;;;3.45;;
64653;SDS011;51065;48.884;12.598;2022-10-16T06:50:55;9.65;;;3.78;;
64653;SDS011;51065;48.884;12.598;2022-10-16T06:53:23;8.10;;;3.90;;
64653;SDS011;51065;48.884;12.598;2022-10-16T06:55:49;10.63;;;3.47;;
64653;SDS011;51065;48.884;12.598;2022-10-16T06:58:15;8.10;;;3.72;;
64653;SDS011;51065;48.884;12.598;2022-10-16T07:00:41;6.30;;;2.97;;
64653;SDS011;51065;48.884;12.598;2022-10-16T07:03:07;8.00;;;3.60;;
64653;SDS011;51065;48.884;12.598;2022-10-16T07:05:37;9.75;;;4.07;;
64653;SDS011;51065;48.884;12.598;2022-10-16T07:10:30;9.68;;;3.85;;
64653;SDS011;51065;48.884;12.598;2022-10-16T07:12:56;9.98;;;4.68;;
64653;SDS011;51065;48.884;12.598;2022-10-16T07:15:21;8.73;;;4.30;;
64653;SDS011;51065;48.884;12.598;2022-10-16T07:17:47;9.38;;;4.25;;
64653;SDS011;51065;48.884;12.598;2022-10-16T07:20:13;9.15;;;4.03;;
64653;SDS011;51065;48.884;12.598;2022-10-16T07:22:38;9.73;;;3.85;;
64653;SDS011;51065;48.884;12.598;2022-10-16T07:25:04;10.52;;;4.35;;
64653;SDS011;51065;48.884;12.598;2022-10-16T07:27:30;6.90;;;3.45;;
64653;SDS011;51065;48.884;12.598;2022-10-16T07:29:56;6.30;;;3.20;;
64653;SDS011;51065;48.884;12.598;2022-10-16T07:32:21;9.13;;;3.13;;
64653;SDS011;51065;48.884;12.598;2022-10-16T07:34:47;9.90;;;4.80;;
64653;SDS011;51065;48.884;12.598;2022-10-16T07:37:13;9.50;;;3.17;;
64653;SDS011;51065;48.884;12.598;2022-10-16T07:39:38;7.18;;;3.30;;
64653;SDS011;51065;48.884;12.598;2022-10-16T07:42:04;10.88;;;4.05;;
64653;SDS011;51065;48.884;12.598;2022-10-16T07:44:29;14.02;;;5.70;;
64653;SDS011;51065;48.884;12.598;2022-10-16T07:46:55;7.22;;;3.20;;
64653;SDS011;51065;48.884;12.598;2022-10-16T07:49:20;13.27;;;3.70;;
64653;SDS011;51065;48.884;12.598;2022-10-16T07:51:46;8.02;;;3.40;;
64653;SDS011;51065;48.884;12.598;2022-10-16T07:54:12;7.97;;;3.00;;
64653;SDS011;51065;48.884;12.598;2022-10-16T07:56:37;11.60;;;4.03;;
64653;SDS011;51065;48.884;12.598;2022-10-16T07:59:03;7.00;;;3.15;;
64653;SDS011;51065;48.884;12.598;2022-10-16T08:01:28;6.03;;;2.90;;
64653;SDS011;51065;48.884;12.598;2022-10-16T08:03:54;5.35;;;2.58;;
64653;SDS011;51065;48.884;12.598;2022-10-16T08:06:20;10.18;;;3.85;;
64653;SDS011;51065;48.884;12.598;2022-10-16T08:08:46;6.70;;;3.15;;
64653;SDS011;51065;48.884;12.598;2022-10-16T08:11:13;5.32;;;2.65;;
64653;SDS011;51065;48.884;12.598;2022-10-16T08:13:39;9.38;;;4.03;;
64653;SDS011;51065;48.884;12.598;2022-10-16T08:16:05;7.93;;;3.10;;
64653;SDS011;51065;48.884;12.598;2022-10-16T08:18:33;9.95;;;3.97;;
64653;SDS011;51065;48.884;12.598;2022-10-16T08:21:00;7.80;;;3.08;;
64653;SDS011;51065;48.884;12.598;2022-10-16T08:23:26;8.23;;;4.00;;
64653;SDS011;51065;48.884;12.598;2022-10-16T08:25:53;7.38;;;3.15;;
64653;SDS011;51065;48.884;12.598;2022-10-16T08:28:20;8.25;;;2.92;;
64653;SDS011;51065;48.884;12.598;2022-10-16T08:30:46;9.70;;;4.18;;
64653;SDS011;51065;48.884;12.598;2022-10-16T08:33:12;8.70;;;3.45;;
64653;SDS011;51065;48.884;12.598;2022-10-16T08:35:37;9.38;;;3.13;;
64653;SDS011;51065;48.884;12.598;2022-10-16T08:38:03;6.22;;;3.15;;
64653;SDS011;51065;48.884;12.598;2022-10-16T08:40:30;4.93;;;2.85;;
64653;SDS011;51065;48.884;12.598;2022-10-16T08:48:54;6.13;;;2.65;;
64653;SDS011;51065;48.884;12.598;2022-10-16T08:51:23;4.80;;;2.47;;
64653;SDS011;51065;48.884;12.598;2022-10-16T08:53:54;4.18;;;2.30;;
64653;SDS011;51065;48.884;12.598;2022-10-16T08:56:27;3.30;;;1.88;;
64653;SDS011;51065;48.884;12.598;2022-10-16T08:58:53;5.35;;;2.30;;
64653;SDS011;51065;48.884;12.598;2022-10-16T09:01:20;8.73;;;2.20;;
64653;SDS011;51065;48.884;12.598;2022-10-16T09:04:11;5.57;;;2.58;;
64653;SDS011;51065;48.884;12.598;2022-10-16T09:18:15;4.15;;;2.30;;
64653;SDS011;51065;48.884;12.598;2022-10-16T09:23:25;6.60;;;2.85;;
64653;SDS011;51065;48.884;12.598;2022-10-16T09:25:52;6.40;;;2.83;;
64653;SDS011;51065;48.884;12.598;2022-10-16T09:28:19;8.70;;;2.60;;
64653;SDS011;51065;48.884;12.598;2022-10-16T09:30:45;4.68;;;2.58;;
64653;SDS011;51065;48.884;12.598;2022-10-16T09:33:13;6.97;;;3.05;;
64653;SDS011;51065;48.884;12.598;2022-10-16T09:35:42;7.40;;;2.88;;
64653;SDS011;51065;48.884;12.598;2022-10-16T09:38:09;4.32;;;2.42;;
64653;SDS011;51065;48.884;12.598;2022-10-16T09:40:49;7.47;;;3.30;;
64653;SDS011;51065;48.884;12.598;2022-10-16T09:46:05;4.68;;;2.40;;
64653;SDS011;51065;48.884;12.598;2022-10-16T09:51:36;4.57;;;2.15;;
64653;SDS011;51065;48.884;12.598;2022-10-16T09:54:12;5.22;;;2.35;;
64653;SDS011;51065;48.884;12.598;2022-10-16T09:56:45;3.22;;;2.10;;
64653;SDS011;51065;48.884;12.598;2022-10-16T09:59:20;3.50;;;1.92;;
64653;SDS011;51065;48.884;12.598;2022-10-16T10:01:52;6.10;;;2.10;;
64653;SDS011;51065;48.884;12.598;2022-10-16T10:04:20;3.47;;;2.10;;
64653;SDS011;51065;48.884;12.598;2022-10-16T10:06:54;7.25;;;2.20;;
64653;SDS011;51065;48.884;12.598;2022-10-16T10:14:30;4.78;;;2.30;;
64653;SDS011;51065;48.884;12.598;2022-10-16T10:17:19;5.72;;;2.50;;
64653;SDS011;51065;48.884;12.598;2022-10-16T10:22:26;4.40;;;2.65;;
64653;SDS011;51065;48.884;12.598;2022-10-16T10:36:25;3.75;;;2.60;;
64653;SDS011;51065;48.884;12.598;2022-10-16T10:38:59;3.42;;;1.98;;
64653;SDS011;51065;48.884;12.598;2022-10-16T10:47:20;3.85;;;2.13;;
64653;SDS011;51065;48.884;12.598;2022-10-16T10:55:45;3.25;;;2.22;;
64653;SDS011;51065;48.884;12.598;2022-10-16T11:06:36;3.55;;;2.00;;
64653;SDS011;51065;48.884;12.598;2022-10-16T11:09:18;3.45;;;2.00;;
64653;SDS011;51065;48.884;12.598;2022-10-16T11:15:17;2.95;;;1.90;;
64653;SDS011;51065;48.884;12.598;2022-10-16T11:17:38;3.38;;;2.13;;
64653;SDS011;51065;48.884;12.598;2022-10-16T11:22:48;3.67;;;2.25;;
64653;SDS011;51065;48.884;12.598;2022-10-16T11:25:16;3.90;;;2.15;;
64653;SDS011;51065;48.884;12.598;2022-10-16T11:28:00;6.88;;;2.30;;
64653;SDS011;51065;48.884;12.598;2022-10-16T11:30:55;4.25;;;1.80;;
64653;SDS011;51065;48.884;12.598;2022-10-16T11:33:34;5.30;;;2.35;;
64653;SDS011;51065;48.884;12.598;2022-10-16T11:39:16;8.73;;;2.53;;
64653;SDS011;51065;48.884;12.598;2022-10-16T11:50:13;3.97;;;2.00;;
64653;SDS011;51065;48.884;12.598;2022-10-16T11:52:55;7.18;;;2.08;;
64653;SDS011;51065;48.884;12.598;2022-10-16T11:55:41;3.33;;;2.10;;
64653;SDS011;51065;48.884;12.598;2022-10-16T12:03:21;4.57;;;2.53;;
64653;SDS011;51065;48.884;12.598;2022-10-16T12:08:24;3.70;;;2.00;;
64653;SDS011;51065;48.884;12.598;2022-10-16T12:10:50;4.88;;;2.50;;
64653;SDS011;51065;48.884;12.598;2022-10-16T12:13:35;7.88;;;2.70;;
64653;SDS011;51065;48.884;12.598;2022-10-16T12:18:38;4.07;;;2.20;;
64653;SDS011;51065;48.884;12.598;2022-10-16T12:21:14;4.28;;;2.60;;
64653;SDS011;51065;48.884;12.598;2022-10-16T12:23:51;5.20;;;2.90;;
64653;SDS011;51065;48.884;12.598;2022-10-16T12:26:27;6.68;;;2.40;;
64653;SDS011;51065;48.884;12.598;2022-10-16T12:28:57;5.60;;;2.72;;
64653;SDS011;51065;48.884;12.598;2022-10-16T12:31:37;6.20;;;3.00;;
64653;SDS011;51065;48.884;12.598;2022-10-16T12:34:43;7.47;;;3.00;;
64653;SDS011;51065;48.884;12.598;2022-10-16T12:37:08;6.10;;;2.83;;
64653;SDS011;51065;48.884;12.598;2022-10-16T12:39:38;4.40;;;2.72;;
64653;SDS011;51065;48.884;12.598;2022-10-16T12:42:04;7.57;;;3.10;;
64653;SDS011;51065;48.884;12.598;2022-10-16T12:44:45;5.32;;;3.00;;
64653;SDS011;51065;48.884;12.598;2022-10-16T12:49:55;5.40;;;2.95;;
64653;SDS011;51065;48.884;12.598;2022-10-16T12:52:28;15.52;;;5.95;;
64653;SDS011;51065;48.884;12.598;2022-10-16T12:55:01;6.07;;;2.90;;
64653;SDS011;51065;48.884;12.598;2022-10-16T13:06:38;6.13;;;2.80;;
64653;SDS011;51065;48.884;12.598;2022-10-16T13:09:15;7.82;;;2.80;;
64653;SDS011;51065;48.884;12.598;2022-10-16T13:23:35;7.43;;;3.03;;
64653;SDS011;51065;48.884;12.598;2022-10-16T13:28:22;9.27;;;3.50;;
64653;SDS011;51065;48.884;12.598;2022-10-16T13:30:54;7.95;;;3.13;;
64653;SDS011;51065;48.884;12.598;2022-10-16T13:36:00;6.78;;;2.90;;
64653;SDS011;51065;48.884;12.598;2022-10-16T13:38:27;5.93;;;3.00;;
64653;SDS011;51065;48.884;12.598;2022-10-16T13:41:02;8.23;;;3.00;;
64653;SDS011;51065;48.884;12.598;2022-10-16T13:46:19;7.03;;;3.05;;
64653;SDS011;51065;48.884;12.598;2022-10-16T13:51:25;6.32;;;3.20;;
64653;SDS011;51065;48.884;12.598;2022-10-16T13:53:51;9.02;;;3.38;;
64653;SDS011;51065;48.884;12.598;2022-10-16T13:56:18;9.52;;;3.40;;
64653;SDS011;51065;48.884;12.598;2022-10-16T13:58:46;7.07;;;3.15;;
64653;SDS011;51065;48.884;12.598;2022-10-16T14:01:23;8.48;;;3.33;;
64653;SDS011;51065;48.884;12.598;2022-10-16T14:04:00;11.07;;;3.72;;
64653;SDS011;51065;48.884;12.598;2022-10-16T14:06:31;9.43;;;3.83;;
64653;SDS011;51065;48.884;12.598;2022-10-16T14:11:53;6.03;;;2.55;;
64653;SDS011;51065;48.884;12.598;2022-10-16T14:14:22;7.65;;;3.33;;
64653;SDS011;51065;48.884;12.598;2022-10-16T14:16:48;8.65;;;3.50;;
64653;SDS011;51065;48.884;12.598;2022-10-16T14:21:48;7.30;;;3.40;;
64653;SDS011;51065;48.884;12.598;2022-10-16T14:26:56;8.15;;;3.60;;
64653;SDS011;51065;48.884;12.598;2022-10-16T14:29:22;7.20;;;3.17;;
64653;SDS011;51065;48.884;12.598;2022-10-16T14:31:57;6.93;;;3.20;;
64653;SDS011;51065;48.884;12.598;2022-10-16T14:34:52;12.93;;;4.07;;
64653;SDS011;51065;48.884;12.598;2022-10-16T14:37:22;8.07;;;3.38;;
64653;SDS011;51065;48.884;12.598;2022-10-16T14:39:53;8.57;;;3.30;;
64653;SDS011;51065;48.884;12.598;2022-10-16T14:42:21;9.43;;;3.58;;
64653;SDS011;51065;48.884;12.598;2022-10-16T14:44:50;7.75;;;3.25;;
64653;SDS011;51065;48.884;12.598;2022-10-16T14:47:21;7.15;;;3.40;;
64653;SDS011;51065;48.884;12.598;2022-10-16T14:49:50;6.50;;;3.00;;
64653;SDS011;51065;48.884;12.598;2022-10-16T14:52:16;7.45;;;3.70;;
64653;SDS011;51065;48.884;12.598;2022-10-16T14:54:42;9.52;;;3.30;;
64653;SDS011;51065;48.884;12.598;2022-10-16T14:57:18;13.18;;;2.83;;
64653;SDS011;51065;48.884;12.598;2022-10-16T14:59:45;5.78;;;3.08;;
64653;SDS011;51065;48.884;12.598;2022-10-16T15:02:18;6.10;;;2.67;;
64653;SDS011;51065;48.884;12.598;2022-10-16T15:04:53;7.03;;;3.20;;
64653;SDS011;51065;48.884;12.598;2022-10-16T15:07:19;9.57;;;3.33;;
64653;SDS011;51065;48.884;12.598;2022-10-16T15:09:45;7.93;;;2.88;;
64653;SDS011;51065;48.884;12.598;2022-10-16T15:12:11;7.97;;;2.80;;
64653;SDS011;51065;48.884;12.598;2022-10-16T15:14:37;7.47;;;3.10;;
64653;SDS011;51065;48.884;12.598;2022-10-16T15:17:02;6.97;;;3.05;;
64653;SDS011;51065;48.884;12.598;2022-10-16T15:19:28;6.72;;;2.88;;
64653;SDS011;51065;48.884;12.598;2022-10-16T15:21:54;9.93;;;3.60;;
64653;SDS011;51065;48.884;12.598;2022-10-16T15:24:20;6.30;;;2.88;;
64653;SDS011;51065;48.884;12.598;2022-10-16T15:26:45;7.35;;;3.13;;
64653;SDS011;51065;48.884;12.598;2022-10-16T15:29:12;10.07;;;3.00;;
64653;SDS011;51065;48.884;12.598;2022-10-16T15:31:38;8.40;;;3.30;;
64653;SDS011;51065;48.884;12.598;2022-10-16T15:34:07;7.93;;;3.35;;
64653;SDS011;51065;48.884;12.598;2022-10-16T15:36:35;8.95;;;3.28;;
64653;SDS011;51065;48.884;12.598;2022-10-16T15:39:10;8.75;;;3.22;;
64653;SDS011;51065;48.884;12.598;2022-10-16T15:41:38;10.30;;;3.25;;
64653;SDS011;51065;48.884;12.598;2022-10-16T15:44:04;9.80;;;3.35;;
64653;SDS011;51065;48.884;12.598;2022-10-16T15:46:29;11.65;;;3.45;;
64653;SDS011;51065;48.884;12.598;2022-10-16T15:48:56;6.45;;;3.40;;
64653;SDS011;51065;48.884;12.598;2022-10-16T15:51:23;8.63;;;3.30;;
64653;SDS011;51065;48.884;12.598;2022-10-16T15:53:50;9.30;;;3.10;;
64653;SDS011;51065;48.884;12.598;2022-10-16T15:56:16;7.13;;;3.10;;
64653;SDS011;51065;48.884;12.598;2022-10-16T15:58:42;7.35;;;3.13;;
64653;SDS011;51065;48.884;12.598;2022-10-16T16:01:08;8.45;;;3.20;;
64653;SDS011;51065;48.884;12.598;2022-10-16T16:03:35;9.52;;;3.53;;
64653;SDS011;51065;48.884;12.598;2022-10-16T16:06:04;9.77;;;3.38;;
64653;SDS011;51065;48.884;12.598;2022-10-16T16:08:30;8.30;;;3.67;;
64653;SDS011;51065;48.884;12.598;2022-10-16T16:11:00;8.90;;;3.20;;
64653;SDS011;51065;48.884;12.598;2022-10-16T16:13:27;12.20;;;4.10;;
64653;SDS011;51065;48.884;12.598;2022-10-16T16:15:53;15.60;;;5.15;;
64653;SDS011;51065;48.884;12.598;2022-10-16T16:18:19;17.17;;;6.43;;
64653;SDS011;51065;48.884;12.598;2022-10-16T16:20:44;24.35;;;9.32;;
64653;SDS011;51065;48.884;12.598;2022-10-16T16:23:10;19.98;;;7.85;;
64653;SDS011;51065;48.884;12.598;2022-10-16T16:25:36;17.13;;;6.15;;
64653;SDS011;51065;48.884;12.598;2022-10-16T16:28:01;15.68;;;5.28;;
64653;SDS011;51065;48.884;12.598;2022-10-16T16:30:27;16.05;;;5.82;;
64653;SDS011;51065;48.884;12.598;2022-10-16T16:32:53;13.40;;;5.13;;
64653;SDS011;51065;48.884;12.598;2022-10-16T16:35:19;9.68;;;4.10;;
64653;SDS011;51065;48.884;12.598;2022-10-16T16:37:44;12.85;;;4.20;;
64653;SDS011;51065;48.884;12.598;2022-10-16T16:40:12;8.77;;;3.53;;
64653;SDS011;51065;48.884;12.598;2022-10-16T16:42:37;13.50;;;4.68;;
64653;SDS011;51065;48.884;12.598;2022-10-16T16:45:03;12.95;;;4.25;;
64653;SDS011;51065;48.884;12.598;2022-10-16T16:47:29;9.73;;;3.80;;
64653;SDS011;51065;48.884;12.598;2022-10-16T16:49:55;11.43;;;4.63;;
64653;SDS011;51065;48.884;12.598;2022-10-16T16:52:20;11.90;;;4.43;;
64653;SDS011;51065;48.884;12.598;2022-10-16T16:54:47;13.02;;;4.60;;
64653;SDS011;51065;48.884;12.598;2022-10-16T16:57:17;10.82;;;4.15;;
64653;SDS011;51065;48.884;12.598;2022-10-16T16:59:43;11.02;;;3.63;;
64653;SDS011;51065;48.884;12.598;2022-10-16T17:02:09;8.68;;;3.63;;
64653;SDS011;51065;48.884;12.598;2022-10-16T17:04:34;9.68;;;4.35;;
64653;SDS011;51065;48.884;12.598;2022-10-16T17:07:00;10.57;;;4.07;;
64653;SDS011;51065;48.884;12.598;2022-10-16T17:09:25;9.13;;;3.88;;
64653;SDS011;51065;48.884;12.598;2022-10-16T17:11:51;10.77;;;3.95;;